North Albemarle, North Carolina
Current Conditions -  °F | °C
As of 4:55 PM on Saturday 25 Oct 2014 (Local Time) from KVUJ Reporting Station
Clear Clear  
Wind Chill: 74°   Ceiling: Unl
Heat Index: 74°   Visibility: 10mi
Dew Point: 30°   Wind: 0mph
Humidity: 20%   Direction: NA
Pressure: 29.97"   Gusts: NA
Location:  35.3503°N, 80.2174°W
Report Text: KVUJ 252055Z AUTO 00000KT 10SM CLR 23/M01 A2997 RMK AO2 T02341010
Loading
Personal Weather Stations






























Interactive Weather Map
Tropical Storm Tracking
New forecast layout! Learn more

10-Day Weather Forecast

Advertisements
Track Severe Weather on mobile